Terminal Aerodrome Forecast
Issued by NWS Detroit/Pontiac, MI

Home | Current Version | Previous Version | Text Only | Print | Product List | Glossary On
Versions: 1 2 3 4 5 6 7 8 9 10 11 12 13 14 15 16 17 18 19 20 21
000
FTUS43 KDTX 300526
TAFFNT
TAF
KFNT 300526Z 3006/3106 VRB03KT 2SM BR OVC045
     FM301000 VRB03KT 1SM BR OVC015
     FM301200 VRB03KT 1SM BR OVC007
     FM301600 VRB03KT 4SM BR OVC015
     FM301800 VRB03KT P6SM BKN025=

USA.gov is the U.S. government's official web portal to all federal, state and local government web resources and services.